sensor_id;sensor_type;location;lat;lon;timestamp;P1;durP1;ratioP1;P2;durP2;ratioP2
56997;SDS011;42890;44.244;22.530;2022-11-20T00:00:45;42.55;;;27.88;;
56997;SDS011;42890;44.244;22.530;2022-11-20T00:03:11;26.08;;;19.60;;
56997;SDS011;42890;44.244;22.530;2022-11-20T00:05:38;15.25;;;13.68;;
56997;SDS011;42890;44.244;22.530;2022-11-20T00:08:04;16.05;;;12.70;;
56997;SDS011;42890;44.244;22.530;2022-11-20T00:10:30;14.98;;;13.70;;
56997;SDS011;42890;44.244;22.530;2022-11-20T00:12:59;14.70;;;13.20;;
56997;SDS011;42890;44.244;22.530;2022-11-20T00:15:25;15.32;;;13.82;;
56997;SDS011;42890;44.244;22.530;2022-11-20T00:17:51;14.13;;;12.77;;
56997;SDS011;42890;44.244;22.530;2022-11-20T00:20:17;13.82;;;12.55;;
56997;SDS011;42890;44.244;22.530;2022-11-20T00:22:43;15.02;;;13.43;;
56997;SDS011;42890;44.244;22.530;2022-11-20T00:25:10;15.90;;;14.05;;
56997;SDS011;42890;44.244;22.530;2022-11-20T00:27:36;15.75;;;14.20;;
56997;SDS011;42890;44.244;22.530;2022-11-20T00:30:02;185.40;;;72.50;;
56997;SDS011;42890;44.244;22.530;2022-11-20T00:32:29;17.88;;;15.38;;
56997;SDS011;42890;44.244;22.530;2022-11-20T00:34:55;14.25;;;12.95;;
56997;SDS011;42890;44.244;22.530;2022-11-20T00:37:21;14.73;;;13.07;;
56997;SDS011;42890;44.244;22.530;2022-11-20T00:39:47;15.13;;;13.73;;
56997;SDS011;42890;44.244;22.530;2022-11-20T00:42:13;169.48;;;71.85;;
56997;SDS011;42890;44.244;22.530;2022-11-20T00:44:39;80.28;;;45.35;;
56997;SDS011;42890;44.244;22.530;2022-11-20T00:47:06;18.50;;;16.52;;
56997;SDS011;42890;44.244;22.530;2022-11-20T00:49:32;28.70;;;22.83;;
56997;SDS011;42890;44.244;22.530;2022-11-20T00:51:58;53.88;;;36.80;;
56997;SDS011;42890;44.244;22.530;2022-11-20T00:54:24;17.15;;;15.38;;
56997;SDS011;42890;44.244;22.530;2022-11-20T00:56:52;17.13;;;15.52;;
56997;SDS011;42890;44.244;22.530;2022-11-20T00:59:18;146.93;;;57.80;;
56997;SDS011;42890;44.244;22.530;2022-11-20T01:01:44;17.90;;;16.23;;
56997;SDS011;42890;44.244;22.530;2022-11-20T01:04:11;17.25;;;15.65;;
56997;SDS011;42890;44.244;22.530;2022-11-20T01:06:37;18.13;;;16.42;;
56997;SDS011;42890;44.244;22.530;2022-11-20T01:09:13;37.40;;;23.92;;
56997;SDS011;42890;44.244;22.530;2022-11-20T01:11:41;19.20;;;17.30;;
56997;SDS011;42890;44.244;22.530;2022-11-20T01:14:12;18.35;;;16.60;;
56997;SDS011;42890;44.244;22.530;2022-11-20T01:16:40;178.65;;;66.03;;
56997;SDS011;42890;44.244;22.530;2022-11-20T01:19:07;33.85;;;23.95;;
56997;SDS011;42890;44.244;22.530;2022-11-20T01:21:35;21.00;;;19.15;;
56997;SDS011;42890;44.244;22.530;2022-11-20T01:24:01;30.83;;;22.80;;
56997;SDS011;42890;44.244;22.530;2022-11-20T01:26:29;20.98;;;18.88;;
56997;SDS011;42890;44.244;22.530;2022-11-20T01:28:56;21.10;;;19.02;;
56997;SDS011;42890;44.244;22.530;2022-11-20T01:31:23;21.08;;;19.13;;
56997;SDS011;42890;44.244;22.530;2022-11-20T01:33:51;20.25;;;18.33;;
56997;SDS011;42890;44.244;22.530;2022-11-20T01:36:18;20.42;;;18.65;;
56997;SDS011;42890;44.244;22.530;2022-11-20T01:38:45;21.23;;;19.33;;
56997;SDS011;42890;44.244;22.530;2022-11-20T01:41:11;20.40;;;18.60;;
56997;SDS011;42890;44.244;22.530;2022-11-20T01:44:01;17.73;;;16.17;;
56997;SDS011;42890;44.244;22.530;2022-11-20T01:46:27;18.08;;;16.25;;
56997;SDS011;42890;44.244;22.530;2022-11-20T01:51:25;16.13;;;14.82;;
56997;SDS011;42890;44.244;22.530;2022-11-20T01:53:53;15.40;;;14.07;;
56997;SDS011;42890;44.244;22.530;2022-11-20T01:56:19;14.40;;;13.10;;
56997;SDS011;42890;44.244;22.530;2022-11-20T01:58:51;14.25;;;13.05;;
56997;SDS011;42890;44.244;22.530;2022-11-20T02:01:20;12.85;;;11.68;;
56997;SDS011;42890;44.244;22.530;2022-11-20T02:03:47;10.75;;;9.85;;
56997;SDS011;42890;44.244;22.530;2022-11-20T02:08:42;11.75;;;10.75;;
56997;SDS011;42890;44.244;22.530;2022-11-20T02:11:09;12.13;;;10.07;;
56997;SDS011;42890;44.244;22.530;2022-11-20T02:13:35;11.95;;;10.73;;
56997;SDS011;42890;44.244;22.530;2022-11-20T02:16:19;11.60;;;10.60;;
56997;SDS011;42890;44.244;22.530;2022-11-20T02:18:49;10.98;;;10.07;;
56997;SDS011;42890;44.244;22.530;2022-11-20T02:21:27;13.50;;;10.30;;
56997;SDS011;42890;44.244;22.530;2022-11-20T02:26:27;11.40;;;10.38;;
56997;SDS011;42890;44.244;22.530;2022-11-20T02:28:54;10.55;;;9.73;;
56997;SDS011;42890;44.244;22.530;2022-11-20T02:31:20;12.10;;;9.73;;
56997;SDS011;42890;44.244;22.530;2022-11-20T02:33:46;10.50;;;9.60;;
56997;SDS011;42890;44.244;22.530;2022-11-20T02:36:14;11.15;;;10.15;;
56997;SDS011;42890;44.244;22.530;2022-11-20T02:38:41;9.30;;;8.60;;
56997;SDS011;42890;44.244;22.530;2022-11-20T02:41:07;9.73;;;8.93;;
56997;SDS011;42890;44.244;22.530;2022-11-20T02:43:33;8.98;;;8.27;;
56997;SDS011;42890;44.244;22.530;2022-11-20T02:45:59;9.63;;;8.73;;
56997;SDS011;42890;44.244;22.530;2022-11-20T02:48:26;11.57;;;10.27;;
56997;SDS011;42890;44.244;22.530;2022-11-20T02:50:52;9.32;;;8.43;;
56997;SDS011;42890;44.244;22.530;2022-11-20T02:53:18;11.23;;;10.05;;
56997;SDS011;42890;44.244;22.530;2022-11-20T02:55:44;16.00;;;14.38;;
56997;SDS011;42890;44.244;22.530;2022-11-20T02:58:10;15.30;;;13.90;;
56997;SDS011;42890;44.244;22.530;2022-11-20T03:00:36;17.00;;;15.38;;
56997;SDS011;42890;44.244;22.530;2022-11-20T03:03:02;30.17;;;27.27;;
56997;SDS011;42890;44.244;22.530;2022-11-20T03:05:29;37.25;;;33.65;;
56997;SDS011;42890;44.244;22.530;2022-11-20T03:07:55;30.00;;;27.20;;
56997;SDS011;42890;44.244;22.530;2022-11-20T03:10:21;29.15;;;26.30;;
56997;SDS011;42890;44.244;22.530;2022-11-20T03:12:47;25.42;;;22.42;;
56997;SDS011;42890;44.244;22.530;2022-11-20T03:15:13;28.70;;;25.60;;
56997;SDS011;42890;44.244;22.530;2022-11-20T03:17:39;22.27;;;20.08;;
56997;SDS011;42890;44.244;22.530;2022-11-20T03:20:06;27.25;;;24.70;;
56997;SDS011;42890;44.244;22.530;2022-11-20T03:22:32;38.42;;;34.53;;
56997;SDS011;42890;44.244;22.530;2022-11-20T03:24:58;41.00;;;36.97;;
56997;SDS011;42890;44.244;22.530;2022-11-20T03:27:24;47.70;;;42.65;;
56997;SDS011;42890;44.244;22.530;2022-11-20T03:29:50;45.85;;;41.22;;
56997;SDS011;42890;44.244;22.530;2022-11-20T03:32:17;46.10;;;41.50;;
56997;SDS011;42890;44.244;22.530;2022-11-20T03:34:43;39.90;;;36.10;;
56997;SDS011;42890;44.244;22.530;2022-11-20T03:37:09;38.28;;;34.42;;
56997;SDS011;42890;44.244;22.530;2022-11-20T03:39:35;48.13;;;43.50;;
56997;SDS011;42890;44.244;22.530;2022-11-20T03:42:01;44.03;;;39.83;;
56997;SDS011;42890;44.244;22.530;2022-11-20T03:44:27;44.58;;;40.50;;
56997;SDS011;42890;44.244;22.530;2022-11-20T03:46:53;44.97;;;40.70;;
56997;SDS011;42890;44.244;22.530;2022-11-20T03:49:19;43.15;;;39.05;;
56997;SDS011;42890;44.244;22.530;2022-11-20T03:51:46;46.75;;;42.25;;
56997;SDS011;42890;44.244;22.530;2022-11-20T03:54:12;46.80;;;42.40;;
56997;SDS011;42890;44.244;22.530;2022-11-20T03:56:38;52.47;;;47.25;;
56997;SDS011;42890;44.244;22.530;2022-11-20T03:59:05;53.10;;;47.67;;
56997;SDS011;42890;44.244;22.530;2022-11-20T04:01:32;67.32;;;57.72;;
56997;SDS011;42890;44.244;22.530;2022-11-20T04:03:58;96.82;;;69.95;;
56997;SDS011;42890;44.244;22.530;2022-11-20T04:06:25;129.57;;;77.25;;
56997;SDS011;42890;44.244;22.530;2022-11-20T04:08:54;61.33;;;55.00;;
56997;SDS011;42890;44.244;22.530;2022-11-20T04:11:26;163.20;;;83.82;;
56997;SDS011;42890;44.244;22.530;2022-11-20T04:13:54;150.98;;;78.93;;
56997;SDS011;42890;44.244;22.530;2022-11-20T04:16:21;69.00;;;61.97;;
56997;SDS011;42890;44.244;22.530;2022-11-20T04:18:51;65.57;;;57.95;;
56997;SDS011;42890;44.244;22.530;2022-11-20T04:21:18;66.82;;;57.03;;
56997;SDS011;42890;44.244;22.530;2022-11-20T04:23:44;58.03;;;51.72;;
56997;SDS011;42890;44.244;22.530;2022-11-20T04:26:10;54.15;;;48.67;;
56997;SDS011;42890;44.244;22.530;2022-11-20T04:28:38;58.08;;;51.95;;
56997;SDS011;42890;44.244;22.530;2022-11-20T04:31:06;58.15;;;52.28;;
56997;SDS011;42890;44.244;22.530;2022-11-20T04:33:33;60.17;;;53.22;;
56997;SDS011;42890;44.244;22.530;2022-11-20T04:36:03;60.13;;;54.13;;
56997;SDS011;42890;44.244;22.530;2022-11-20T04:38:30;62.25;;;55.88;;
56997;SDS011;42890;44.244;22.530;2022-11-20T04:40:57;63.28;;;56.58;;
56997;SDS011;42890;44.244;22.530;2022-11-20T04:43:23;63.88;;;57.38;;
56997;SDS011;42890;44.244;22.530;2022-11-20T04:45:53;61.05;;;54.97;;
56997;SDS011;42890;44.244;22.530;2022-11-20T04:48:19;57.53;;;51.97;;
56997;SDS011;42890;44.244;22.530;2022-11-20T04:50:45;57.65;;;51.95;;
56997;SDS011;42890;44.244;22.530;2022-11-20T04:53:12;56.22;;;50.63;;
56997;SDS011;42890;44.244;22.530;2022-11-20T04:55:38;66.75;;;59.85;;
56997;SDS011;42890;44.244;22.530;2022-11-20T04:58:04;55.95;;;50.47;;
56997;SDS011;42890;44.244;22.530;2022-11-20T05:00:30;49.92;;;44.92;;
56997;SDS011;42890;44.244;22.530;2022-11-20T05:02:56;53.72;;;48.63;;
56997;SDS011;42890;44.244;22.530;2022-11-20T05:05:22;52.45;;;47.28;;
56997;SDS011;42890;44.244;22.530;2022-11-20T05:07:48;52.65;;;47.60;;
56997;SDS011;42890;44.244;22.530;2022-11-20T05:10:15;53.63;;;48.38;;
56997;SDS011;42890;44.244;22.530;2022-11-20T05:12:41;64.90;;;58.40;;
56997;SDS011;42890;44.244;22.530;2022-11-20T05:15:07;54.17;;;48.90;;
56997;SDS011;42890;44.244;22.530;2022-11-20T05:17:33;47.72;;;43.13;;
56997;SDS011;42890;44.244;22.530;2022-11-20T05:19:59;49.05;;;44.42;;
56997;SDS011;42890;44.244;22.530;2022-11-20T05:22:25;45.35;;;40.95;;
56997;SDS011;42890;44.244;22.530;2022-11-20T05:24:52;46.95;;;42.50;;
56997;SDS011;42890;44.244;22.530;2022-11-20T05:27:18;46.95;;;42.45;;
56997;SDS011;42890;44.244;22.530;2022-11-20T05:29:44;56.58;;;50.75;;
56997;SDS011;42890;44.244;22.530;2022-11-20T05:32:10;55.33;;;49.75;;
56997;SDS011;42890;44.244;22.530;2022-11-20T05:34:36;59.33;;;53.70;;
56997;SDS011;42890;44.244;22.530;2022-11-20T05:37:02;69.07;;;60.45;;
56997;SDS011;42890;44.244;22.530;2022-11-20T05:39:28;64.00;;;57.13;;
56997;SDS011;42890;44.244;22.530;2022-11-20T05:41:55;68.28;;;59.88;;
56997;SDS011;42890;44.244;22.530;2022-11-20T05:44:41;62.40;;;55.83;;
56997;SDS011;42890;44.244;22.530;2022-11-20T05:47:07;51.13;;;46.00;;
56997;SDS011;42890;44.244;22.530;2022-11-20T05:49:33;54.90;;;49.55;;
56997;SDS011;42890;44.244;22.530;2022-11-20T05:52:00;54.40;;;48.97;;
56997;SDS011;42890;44.244;22.530;2022-11-20T05:54:26;83.05;;;66.20;;
56997;SDS011;42890;44.244;22.530;2022-11-20T05:56:52;44.83;;;40.75;;
56997;SDS011;42890;44.244;22.530;2022-11-20T05:59:18;42.83;;;38.78;;
56997;SDS011;42890;44.244;22.530;2022-11-20T06:01:44;47.15;;;42.22;;
56997;SDS011;42890;44.244;22.530;2022-11-20T06:04:10;71.57;;;63.63;;
56997;SDS011;42890;44.244;22.530;2022-11-20T06:06:36;61.65;;;55.42;;
56997;SDS011;42890;44.244;22.530;2022-11-20T06:09:02;49.38;;;44.60;;
56997;SDS011;42890;44.244;22.530;2022-11-20T06:11:28;68.47;;;58.67;;
56997;SDS011;42890;44.244;22.530;2022-11-20T06:13:55;74.90;;;56.90;;
56997;SDS011;42890;44.244;22.530;2022-11-20T06:16:21;85.22;;;63.17;;
56997;SDS011;42890;44.244;22.530;2022-11-20T06:18:47;58.75;;;52.30;;
56997;SDS011;42890;44.244;22.530;2022-11-20T06:21:15;59.47;;;53.17;;
56997;SDS011;42890;44.244;22.530;2022-11-20T06:23:41;68.95;;;57.20;;
56997;SDS011;42890;44.244;22.530;2022-11-20T06:26:15;44.65;;;40.20;;
56997;SDS011;42890;44.244;22.530;2022-11-20T06:28:41;34.72;;;31.48;;
56997;SDS011;42890;44.244;22.530;2022-11-20T06:31:09;35.10;;;31.67;;
56997;SDS011;42890;44.244;22.530;2022-11-20T06:33:35;37.72;;;33.90;;
56997;SDS011;42890;44.244;22.530;2022-11-20T06:36:02;40.60;;;36.47;;
56997;SDS011;42890;44.244;22.530;2022-11-20T06:38:28;35.75;;;32.20;;
56997;SDS011;42890;44.244;22.530;2022-11-20T06:40:55;36.67;;;33.03;;
56997;SDS011;42890;44.244;22.530;2022-11-20T06:43:21;35.35;;;32.13;;
56997;SDS011;42890;44.244;22.530;2022-11-20T06:45:58;37.70;;;34.15;;
56997;SDS011;42890;44.244;22.530;2022-11-20T06:48:25;38.88;;;34.88;;
56997;SDS011;42890;44.244;22.530;2022-11-20T06:50:52;35.10;;;31.70;;
56997;SDS011;42890;44.244;22.530;2022-11-20T06:53:18;35.70;;;32.30;;
56997;SDS011;42890;44.244;22.530;2022-11-20T06:55:45;36.38;;;33.00;;
56997;SDS011;42890;44.244;22.530;2022-11-20T06:58:12;37.03;;;33.63;;
56997;SDS011;42890;44.244;22.530;2022-11-20T07:00:39;38.35;;;34.63;;
56997;SDS011;42890;44.244;22.530;2022-11-20T07:03:05;45.75;;;40.92;;
56997;SDS011;42890;44.244;22.530;2022-11-20T07:05:32;60.90;;;54.38;;
56997;SDS011;42890;44.244;22.530;2022-11-20T07:07:58;99.22;;;72.57;;
56997;SDS011;42890;44.244;22.530;2022-11-20T07:10:25;143.27;;;89.13;;
56997;SDS011;42890;44.244;22.530;2022-11-20T07:12:52;99.35;;;73.05;;
56997;SDS011;42890;44.244;22.530;2022-11-20T07:15:19;173.43;;;92.15;;
56997;SDS011;42890;44.244;22.530;2022-11-20T07:17:45;112.05;;;70.05;;
56997;SDS011;42890;44.244;22.530;2022-11-20T07:20:12;126.22;;;75.18;;
56997;SDS011;42890;44.244;22.530;2022-11-20T07:22:38;133.00;;;73.70;;
56997;SDS011;42890;44.244;22.530;2022-11-20T07:25:04;56.60;;;47.17;;
56997;SDS011;42890;44.244;22.530;2022-11-20T07:27:31;49.58;;;44.28;;
56997;SDS011;42890;44.244;22.530;2022-11-20T07:29:57;55.03;;;49.25;;
56997;SDS011;42890;44.244;22.530;2022-11-20T07:32:23;69.00;;;60.90;;
56997;SDS011;42890;44.244;22.530;2022-11-20T07:34:50;71.65;;;62.08;;
56997;SDS011;42890;44.244;22.530;2022-11-20T07:37:16;60.75;;;54.45;;
56997;SDS011;42890;44.244;22.530;2022-11-20T07:39:42;85.90;;;72.40;;
56997;SDS011;42890;44.244;22.530;2022-11-20T07:42:08;76.88;;;68.72;;
56997;SDS011;42890;44.244;22.530;2022-11-20T07:44:35;66.45;;;59.78;;
56997;SDS011;42890;44.244;22.530;2022-11-20T07:47:01;58.45;;;52.85;;
56997;SDS011;42890;44.244;22.530;2022-11-20T07:49:27;58.33;;;52.63;;
56997;SDS011;42890;44.244;22.530;2022-11-20T07:51:53;50.15;;;45.45;;
56997;SDS011;42890;44.244;22.530;2022-11-20T07:54:20;44.30;;;40.17;;
56997;SDS011;42890;44.244;22.530;2022-11-20T07:56:47;45.65;;;41.55;;
56997;SDS011;42890;44.244;22.530;2022-11-20T07:59:13;51.47;;;46.90;;
56997;SDS011;42890;44.244;22.530;2022-11-20T08:01:40;41.95;;;37.90;;
56997;SDS011;42890;44.244;22.530;2022-11-20T08:04:06;29.25;;;26.60;;
56997;SDS011;42890;44.244;22.530;2022-11-20T08:06:34;28.60;;;26.00;;
56997;SDS011;42890;44.244;22.530;2022-11-20T08:09:00;27.00;;;24.50;;
56997;SDS011;42890;44.244;22.530;2022-11-20T08:11:26;27.35;;;24.85;;
56997;SDS011;42890;44.244;22.530;2022-11-20T08:14:11;26.08;;;23.88;;
56997;SDS011;42890;44.244;22.530;2022-11-20T08:16:41;30.70;;;27.80;;
56997;SDS011;42890;44.244;22.530;2022-11-20T08:19:08;31.50;;;28.55;;
56997;SDS011;42890;44.244;22.530;2022-11-20T08:21:34;30.95;;;28.25;;
56997;SDS011;42890;44.244;22.530;2022-11-20T08:24:00;30.33;;;27.10;;
56997;SDS011;42890;44.244;22.530;2022-11-20T08:26:26;30.92;;;27.80;;
56997;SDS011;42890;44.244;22.530;2022-11-20T08:28:53;30.67;;;27.65;;
56997;SDS011;42890;44.244;22.530;2022-11-20T08:31:20;33.60;;;30.40;;
56997;SDS011;42890;44.244;22.530;2022-11-20T08:33:46;39.55;;;36.03;;
56997;SDS011;42890;44.244;22.530;2022-11-20T08:36:12;45.10;;;40.70;;
56997;SDS011;42890;44.244;22.530;2022-11-20T08:38:38;53.67;;;49.08;;
56997;SDS011;42890;44.244;22.530;2022-11-20T08:41:05;49.65;;;44.70;;
56997;SDS011;42890;44.244;22.530;2022-11-20T08:43:51;56.45;;;50.83;;
56997;SDS011;42890;44.244;22.530;2022-11-20T08:46:18;59.70;;;53.30;;
56997;SDS011;42890;44.244;22.530;2022-11-20T08:48:44;74.63;;;61.70;;
56997;SDS011;42890;44.244;22.530;2022-11-20T08:51:11;135.32;;;74.97;;
56997;SDS011;42890;44.244;22.530;2022-11-20T08:53:38;105.57;;;65.05;;
56997;SDS011;42890;44.244;22.530;2022-11-20T08:56:04;52.13;;;45.35;;
56997;SDS011;42890;44.244;22.530;2022-11-20T08:58:30;31.15;;;28.25;;
56997;SDS011;42890;44.244;22.530;2022-11-20T09:00:57;33.85;;;30.45;;
56997;SDS011;42890;44.244;22.530;2022-11-20T09:03:23;38.17;;;34.30;;
56997;SDS011;42890;44.244;22.530;2022-11-20T09:05:56;51.85;;;41.33;;
56997;SDS011;42890;44.244;22.530;2022-11-20T09:08:22;64.53;;;53.00;;
56997;SDS011;42890;44.244;22.530;2022-11-20T09:10:51;64.85;;;57.97;;
56997;SDS011;42890;44.244;22.530;2022-11-20T09:13:17;178.73;;;107.28;;
56997;SDS011;42890;44.244;22.530;2022-11-20T09:15:43;194.02;;;107.03;;
56997;SDS011;42890;44.244;22.530;2022-11-20T09:18:09;99.68;;;72.32;;
56997;SDS011;42890;44.244;22.530;2022-11-20T09:20:35;52.55;;;47.55;;
56997;SDS011;42890;44.244;22.530;2022-11-20T09:23:02;47.20;;;43.03;;
56997;SDS011;42890;44.244;22.530;2022-11-20T09:25:28;51.75;;;46.92;;
56997;SDS011;42890;44.244;22.530;2022-11-20T09:27:57;118.25;;;73.03;;
56997;SDS011;42890;44.244;22.530;2022-11-20T09:30:24;79.65;;;62.85;;
56997;SDS011;42890;44.244;22.530;2022-11-20T09:32:50;47.08;;;42.38;;
56997;SDS011;42890;44.244;22.530;2022-11-20T09:35:18;41.17;;;37.70;;
56997;SDS011;42890;44.244;22.530;2022-11-20T09:37:44;61.28;;;55.60;;
56997;SDS011;42890;44.244;22.530;2022-11-20T09:40:19;347.95;;;174.05;;
56997;SDS011;42890;44.244;22.530;2022-11-20T09:42:54;523.17;;;242.93;;
56997;SDS011;42890;44.244;22.530;2022-11-20T09:50:25;59.88;;;54.25;;
56997;SDS011;42890;44.244;22.530;2022-11-20T09:55:23;109.30;;;91.65;;
56997;SDS011;42890;44.244;22.530;2022-11-20T09:57:50;98.82;;;87.53;;
56997;SDS011;42890;44.244;22.530;2022-11-20T10:00:17;98.15;;;85.57;;
56997;SDS011;42890;44.244;22.530;2022-11-20T10:02:52;82.03;;;73.38;;
56997;SDS011;42890;44.244;22.530;2022-11-20T10:05:21;390.42;;;164.20;;
56997;SDS011;42890;44.244;22.530;2022-11-20T10:08:22;421.58;;;184.15;;
56997;SDS011;42890;44.244;22.530;2022-11-20T10:31:54;36.40;;;32.78;;
56997;SDS011;42890;44.244;22.530;2022-11-20T10:36:40;36.30;;;32.50;;
56997;SDS011;42890;44.244;22.530;2022-11-20T10:41:52;52.67;;;47.20;;
56997;SDS011;42890;44.244;22.530;2022-11-20T10:44:24;50.88;;;45.88;;
56997;SDS011;42890;44.244;22.530;2022-11-20T10:47:12;52.80;;;47.85;;
56997;SDS011;42890;44.244;22.530;2022-11-20T10:49:39;46.58;;;42.15;;
56997;SDS011;42890;44.244;22.530;2022-11-20T10:59:53;39.22;;;35.42;;
56997;SDS011;42890;44.244;22.530;2022-11-20T11:02:29;36.97;;;33.55;;
56997;SDS011;42890;44.244;22.530;2022-11-20T11:04:58;38.38;;;35.03;;
56997;SDS011;42890;44.244;22.530;2022-11-20T11:07:31;42.75;;;38.65;;
56997;SDS011;42890;44.244;22.530;2022-11-20T11:09:59;42.72;;;38.65;;
56997;SDS011;42890;44.244;22.530;2022-11-20T11:12:26;27.95;;;25.45;;
56997;SDS011;42890;44.244;22.530;2022-11-20T11:14:54;23.05;;;21.05;;
56997;SDS011;42890;44.244;22.530;2022-11-20T11:17:31;22.30;;;20.40;;
56997;SDS011;42890;44.244;22.530;2022-11-20T11:19:58;37.70;;;29.50;;
56997;SDS011;42890;44.244;22.530;2022-11-20T11:22:24;33.70;;;25.48;;
56997;SDS011;42890;44.244;22.530;2022-11-20T11:24:51;25.83;;;23.13;;
56997;SDS011;42890;44.244;22.530;2022-11-20T11:27:17;15.93;;;14.52;;
56997;SDS011;42890;44.244;22.530;2022-11-20T11:29:44;15.90;;;14.48;;
56997;SDS011;42890;44.244;22.530;2022-11-20T11:32:20;18.40;;;16.58;;
56997;SDS011;42890;44.244;22.530;2022-11-20T11:35:05;23.33;;;21.13;;
56997;SDS011;42890;44.244;22.530;2022-11-20T11:37:33;23.35;;;21.23;;
56997;SDS011;42890;44.244;22.530;2022-11-20T11:40:00;21.80;;;19.80;;
56997;SDS011;42890;44.244;22.530;2022-11-20T11:42:26;19.25;;;17.38;;
56997;SDS011;42890;44.244;22.530;2022-11-20T11:44:54;15.90;;;14.40;;
56997;SDS011;42890;44.244;22.530;2022-11-20T11:47:32;14.55;;;13.25;;
56997;SDS011;42890;44.244;22.530;2022-11-20T11:55:24;13.15;;;11.95;;
56997;SDS011;42890;44.244;22.530;2022-11-20T12:00:19;13.63;;;12.32;;
56997;SDS011;42890;44.244;22.530;2022-11-20T12:05:22;19.42;;;17.63;;
56997;SDS011;42890;44.244;22.530;2022-11-20T12:07:51;16.60;;;15.15;;
56997;SDS011;42890;44.244;22.530;2022-11-20T12:10:20;17.92;;;16.63;;
56997;SDS011;42890;44.244;22.530;2022-11-20T12:12:48;18.92;;;17.33;;
56997;SDS011;42890;44.244;22.530;2022-11-20T12:15:31;18.90;;;17.30;;
56997;SDS011;42890;44.244;22.530;2022-11-20T12:17:58;18.35;;;16.85;;
56997;SDS011;42890;44.244;22.530;2022-11-20T12:20:35;22.27;;;19.83;;
56997;SDS011;42890;44.244;22.530;2022-11-20T12:23:07;19.25;;;17.42;;
56997;SDS011;42890;44.244;22.530;2022-11-20T12:25:36;18.88;;;15.55;;
56997;SDS011;42890;44.244;22.530;2022-11-20T12:30:48;15.25;;;13.70;;
56997;SDS011;42890;44.244;22.530;2022-11-20T12:33:18;14.40;;;13.10;;
56997;SDS011;42890;44.244;22.530;2022-11-20T12:35:52;13.73;;;12.63;;
56997;SDS011;42890;44.244;22.530;2022-11-20T12:43:26;15.82;;;14.52;;
56997;SDS011;42890;44.244;22.530;2022-11-20T12:54:01;18.15;;;16.52;;
56997;SDS011;42890;44.244;22.530;2022-11-20T13:02:01;11.52;;;10.63;;
56997;SDS011;42890;44.244;22.530;2022-11-20T13:04:23;11.85;;;10.75;;
56997;SDS011;42890;44.244;22.530;2022-11-20T13:06:53;11.30;;;10.30;;
56997;SDS011;42890;44.244;22.530;2022-11-20T13:09:20;13.90;;;12.50;;
56997;SDS011;42890;44.244;22.530;2022-11-20T13:11:48;14.27;;;12.90;;
56997;SDS011;42890;44.244;22.530;2022-11-20T13:14:37;13.30;;;12.07;;
56997;SDS011;42890;44.244;22.530;2022-11-20T13:19:32;11.32;;;10.30;;
56997;SDS011;42890;44.244;22.530;2022-11-20T13:21:58;9.25;;;8.45;;
56997;SDS011;42890;44.244;22.530;2022-11-20T13:24:26;9.00;;;8.20;;
56997;SDS011;42890;44.244;22.530;2022-11-20T13:27:02;9.20;;;8.48;;
56997;SDS011;42890;44.244;22.530;2022-11-20T13:29:29;8.02;;;7.43;;
56997;SDS011;42890;44.244;22.530;2022-11-20T13:32:04;8.43;;;7.63;;
56997;SDS011;42890;44.244;22.530;2022-11-20T13:34:31;8.55;;;7.78;;
56997;SDS011;42890;44.244;22.530;2022-11-20T13:36:58;11.35;;;7.68;;
56997;SDS011;42890;44.244;22.530;2022-11-20T13:39:26;7.47;;;6.88;;
56997;SDS011;42890;44.244;22.530;2022-11-20T13:41:56;10.68;;;9.23;;
56997;SDS011;42890;44.244;22.530;2022-11-20T13:44:33;18.77;;;14.20;;
56997;SDS011;42890;44.244;22.530;2022-11-20T13:47:00;11.63;;;10.50;;
56997;SDS011;42890;44.244;22.530;2022-11-20T13:49:29;10.90;;;9.93;;
56997;SDS011;42890;44.244;22.530;2022-11-20T13:59:58;42.78;;;37.03;;
56997;SDS011;42890;44.244;22.530;2022-11-20T14:02:26;309.42;;;143.02;;
56997;SDS011;42890;44.244;22.530;2022-11-20T14:04:54;217.30;;;117.03;;
56997;SDS011;42890;44.244;22.530;2022-11-20T14:07:21;204.02;;;101.93;;
56997;SDS011;42890;44.244;22.530;2022-11-20T14:09:53;50.15;;;37.05;;
56997;SDS011;42890;44.244;22.530;2022-11-20T14:12:20;33.22;;;25.75;;
56997;SDS011;42890;44.244;22.530;2022-11-20T14:14:50;49.22;;;41.13;;
56997;SDS011;42890;44.244;22.530;2022-11-20T14:17:18;40.10;;;33.90;;
56997;SDS011;42890;44.244;22.530;2022-11-20T14:19:45;58.80;;;45.50;;
56997;SDS011;42890;44.244;22.530;2022-11-20T14:22:20;50.10;;;42.75;;
56997;SDS011;42890;44.244;22.530;2022-11-20T14:24:47;79.32;;;56.63;;
56997;SDS011;42890;44.244;22.530;2022-11-20T14:27:17;48.30;;;43.25;;
56997;SDS011;42890;44.244;22.530;2022-11-20T14:29:45;78.53;;;63.22;;
56997;SDS011;42890;44.244;22.530;2022-11-20T14:32:14;166.93;;;101.13;;
56997;SDS011;42890;44.244;22.530;2022-11-20T14:34:41;222.93;;;116.93;;
56997;SDS011;42890;44.244;22.530;2022-11-20T14:37:12;334.08;;;170.15;;
56997;SDS011;42890;44.244;22.530;2022-11-20T14:39:46;237.15;;;133.15;;
56997;SDS011;42890;44.244;22.530;2022-11-20T14:42:17;219.48;;;124.13;;
56997;SDS011;42890;44.244;22.530;2022-11-20T14:44:43;191.55;;;99.20;;
56997;SDS011;42890;44.244;22.530;2022-11-20T14:47:14;182.30;;;101.05;;
56997;SDS011;42890;44.244;22.530;2022-11-20T14:49:41;52.50;;;40.15;;
56997;SDS011;42890;44.244;22.530;2022-11-20T14:52:12;194.00;;;89.03;;
56997;SDS011;42890;44.244;22.530;2022-11-20T14:54:49;348.60;;;137.95;;
56997;SDS011;42890;44.244;22.530;2022-11-20T15:00:05;15.05;;;13.45;;
56997;SDS011;42890;44.244;22.530;2022-11-20T15:02:32;13.00;;;11.90;;
56997;SDS011;42890;44.244;22.530;2022-11-20T15:04:59;11.18;;;9.45;;
56997;SDS011;42890;44.244;22.530;2022-11-20T15:07:33;10.02;;;9.13;;
56997;SDS011;42890;44.244;22.530;2022-11-20T15:10:00;10.00;;;9.20;;
56997;SDS011;42890;44.244;22.530;2022-11-20T15:12:26;12.15;;;11.15;;
56997;SDS011;42890;44.244;22.530;2022-11-20T15:14:52;18.80;;;16.75;;
56997;SDS011;42890;44.244;22.530;2022-11-20T15:17:18;25.00;;;22.33;;
56997;SDS011;42890;44.244;22.530;2022-11-20T15:19:45;23.10;;;20.80;;
56997;SDS011;42890;44.244;22.530;2022-11-20T15:22:11;17.23;;;15.10;;
56997;SDS011;42890;44.244;22.530;2022-11-20T15:24:38;12.07;;;10.80;;
56997;SDS011;42890;44.244;22.530;2022-11-20T15:27:04;14.18;;;12.88;;
56997;SDS011;42890;44.244;22.530;2022-11-20T15:29:30;11.20;;;10.20;;
56997;SDS011;42890;44.244;22.530;2022-11-20T15:31:57;10.77;;;9.68;;
56997;SDS011;42890;44.244;22.530;2022-11-20T15:34:23;10.35;;;9.45;;
56997;SDS011;42890;44.244;22.530;2022-11-20T15:36:49;10.48;;;8.90;;
56997;SDS011;42890;44.244;22.530;2022-11-20T15:39:15;8.63;;;7.93;;
56997;SDS011;42890;44.244;22.530;2022-11-20T15:41:42;8.20;;;7.50;;
56997;SDS011;42890;44.244;22.530;2022-11-20T15:44:09;219.45;;;103.57;;
56997;SDS011;42890;44.244;22.530;2022-11-20T15:46:38;261.85;;;120.32;;